createdAt,value
2023-01-18T00:00:50.545Z,-0.5
2023-01-18T00:02:00.649Z,-0.5
2023-01-18T00:03:10.729Z,-0.5
2023-01-18T00:04:20.896Z,-0.5
2023-01-18T00:05:31.009Z,-0.5
2023-01-18T00:06:41.122Z,-0.5
2023-01-18T00:07:51.248Z,-0.5
2023-01-18T00:09:01.371Z,-0.4
2023-01-18T00:10:11.454Z,-0.4
2023-01-18T00:11:20.616Z,-0.4
2023-01-18T00:12:30.747Z,-0.4
2023-01-18T00:13:40.865Z,-0.5
2023-01-18T00:14:50.977Z,-0.5
2023-01-18T00:16:01.098Z,-0.6
2023-01-18T00:17:11.175Z,-0.6
2023-01-18T00:18:21.331Z,-0.7
2023-01-18T00:19:31.458Z,-0.8
2023-01-18T00:20:41.580Z,-0.7
2023-01-18T00:21:51.689Z,-0.8
2023-01-18T00:23:01.813Z,-0.8
2023-01-18T00:24:11.937Z,-0.8
2023-01-18T00:25:22.042Z,-0.8
2023-01-18T00:26:31.196Z,-0.8
2023-01-18T00:27:41.304Z,-0.8
2023-01-18T00:28:51.432Z,-0.8
2023-01-18T00:30:01.535Z,-0.8
2023-01-18T00:31:11.620Z,-0.7
2023-01-18T00:32:21.776Z,-0.7
2023-01-18T00:33:31.854Z,-0.7
2023-01-18T00:34:42.024Z,-0.7
2023-01-18T00:35:52.128Z,-0.7
2023-01-18T00:37:02.250Z,-0.7
2023-01-18T00:38:12.331Z,-0.7
2023-01-18T00:39:22.490Z,-0.7
2023-01-18T00:40:32.604Z,-0.7
2023-01-18T00:41:41.740Z,-0.6
2023-01-18T00:42:51.873Z,-0.6
2023-01-18T00:44:01.993Z,-0.7
2023-01-18T00:45:12.099Z,-0.6
2023-01-18T00:46:22.229Z,-0.6
2023-01-18T00:47:32.349Z,-0.6
2023-01-18T00:48:42.470Z,-0.6
2023-01-18T00:49:52.572Z,-0.6
2023-01-18T00:51:02.687Z,-0.6
2023-01-18T00:52:12.815Z,-0.6
2023-01-18T00:53:22.935Z,-0.6
2023-01-18T00:54:33.062Z,-0.6
2023-01-18T00:55:43.167Z,-0.5
2023-01-18T00:56:52.318Z,-0.6
2023-01-18T00:58:02.423Z,-0.5
2023-01-18T00:59:12.551Z,-0.5
2023-01-18T01:00:22.663Z,-0.4
2023-01-18T01:01:32.791Z,-0.4
2023-01-18T01:02:42.898Z,-0.3
2023-01-18T01:03:53.017Z,-0.4
2023-01-18T01:05:03.156Z,-0.4
2023-01-18T01:06:13.261Z,-0.4
2023-01-18T01:07:23.387Z,-0.4
2023-01-18T01:09:43.614Z,-0.5
2023-01-18T01:10:53.740Z,-0.5
2023-01-18T01:12:02.875Z,-0.4
2023-01-18T01:13:13.000Z,-0.5
2023-01-18T01:14:23.101Z,-0.5
2023-01-18T01:15:33.195Z,-0.5
2023-01-18T01:16:43.347Z,-0.5
2023-01-18T01:17:52.486Z,-0.4
2023-01-18T01:19:02.614Z,-0.5
2023-01-18T01:20:12.725Z,-0.4
2023-01-18T01:21:22.850Z,-0.4
2023-01-18T01:22:32.965Z,-0.4
2023-01-18T01:23:43.093Z,-0.4
2023-01-18T01:24:53.213Z,-0.4
2023-01-18T01:26:03.313Z,-0.4
2023-01-18T01:27:13.436Z,-0.4
2023-01-18T01:28:23.557Z,-0.4
2023-01-18T01:29:33.691Z,-0.4
2023-01-18T01:30:43.798Z,-0.5
2023-01-18T01:31:53.921Z,-0.4
2023-01-18T01:33:03.066Z,-0.3
2023-01-18T01:34:13.166Z,-0.3
2023-01-18T01:35:23.300Z,-0.4
2023-01-18T01:36:33.373Z,-0.4
2023-01-18T01:37:43.535Z,-0.5
2023-01-18T01:38:53.659Z,-0.5
2023-01-18T01:40:03.763Z,-0.5
2023-01-18T01:41:13.889Z,-0.5
2023-01-18T01:42:24.007Z,-0.5
2023-01-18T01:43:34.079Z,-0.5
2023-01-18T01:44:44.237Z,-0.5
2023-01-18T01:45:54.361Z,-0.6
2023-01-18T01:47:04.491Z,-0.7
2023-01-18T01:48:13.626Z,-0.7
2023-01-18T01:49:23.747Z,-0.7
2023-01-18T01:51:43.977Z,-0.8
2023-01-18T01:52:54.101Z,-0.8
2023-01-18T01:54:04.224Z,-0.8
2023-01-18T01:55:14.283Z,-0.9
2023-01-18T01:56:24.458Z,-0.9
2023-01-18T01:57:34.527Z,-0.9
2023-01-18T01:58:44.689Z,-0.9
2023-01-18T01:59:54.807Z,-0.9
2023-01-18T02:01:04.921Z,-1
2023-01-18T02:02:15.007Z,-1.1
2023-01-18T02:03:24.183Z,-1.2
2023-01-18T02:04:34.307Z,-1.2
2023-01-18T02:05:44.414Z,-1.3
2023-01-18T02:06:54.537Z,-1.3
2023-01-18T02:08:04.667Z,-1.3
2023-01-18T02:09:14.725Z,-1.3
2023-01-18T02:10:24.888Z,-1.3
2023-01-18T02:12:45.131Z,-1.4
2023-01-18T02:13:55.255Z,-1.5
2023-01-18T02:15:05.367Z,-1.5
2023-01-18T02:16:15.448Z,-1.5
2023-01-18T02:17:25.596Z,-1.5
2023-01-18T02:18:34.749Z,-1.5
2023-01-18T02:19:44.862Z,-1.4
2023-01-18T02:20:54.991Z,-1.4
2023-01-18T02:22:05.111Z,-1.4
2023-01-18T02:23:15.211Z,-1.5
2023-01-18T02:24:25.324Z,-1.6
2023-01-18T02:25:35.454Z,-1.6
2023-01-18T02:26:45.564Z,-1.7
2023-01-18T02:27:55.686Z,-1.7
2023-01-18T02:29:05.812Z,-1.7
2023-01-18T02:30:15.927Z,-1.7
2023-01-18T02:31:26.056Z,-1.6
2023-01-18T02:32:36.120Z,-1.5
2023-01-18T02:33:45.307Z,-1.5
2023-01-18T02:34:55.425Z,-1.5
2023-01-18T02:36:05.536Z,-1.5
2023-01-18T02:37:15.657Z,-1.4
2023-01-18T02:38:25.783Z,-1.5
2023-01-18T02:39:35.906Z,-1.4
2023-01-18T02:40:46.010Z,-1.4
2023-01-18T02:41:56.148Z,-1.4
2023-01-18T02:43:06.260Z,-1.4
2023-01-18T02:44:16.330Z,-1.3
2023-01-18T02:45:26.487Z,-1.3
2023-01-18T02:47:46.725Z,-1.3
2023-01-18T02:48:55.859Z,-1.4
2023-01-18T02:50:05.989Z,-1.5
2023-01-18T02:51:16.106Z,-1.4
2023-01-18T02:52:26.212Z,-1.4
2023-01-18T02:53:36.288Z,-1.5
2023-01-18T02:54:46.461Z,-1.5
2023-01-18T02:55:56.584Z,-1.5
2023-01-18T02:57:06.708Z,-1.4
2023-01-18T02:58:17.071Z,-1.4
2023-01-18T02:59:26.923Z,-1.4
2023-01-18T03:00:37.055Z,-1.4
2023-01-18T03:01:47.185Z,-1.4
2023-01-18T03:02:57.302Z,-1.4
2023-01-18T03:04:06.438Z,-1.4
2023-01-18T03:05:16.545Z,-1.3
2023-01-18T03:06:26.668Z,-1.3
2023-01-18T03:07:36.779Z,-1.2
2023-01-18T03:08:46.905Z,-1.2
2023-01-18T03:09:57.029Z,-1.1
2023-01-18T03:11:07.134Z,-1.1
2023-01-18T03:12:17.507Z,-1.1
2023-01-18T03:13:27.372Z,-1.1
2023-01-18T03:14:37.499Z,-1.1
2023-01-18T03:15:47.625Z,-1.1
2023-01-18T03:16:57.735Z,-1.1
2023-01-18T03:18:07.806Z,-1.1
2023-01-18T03:19:16.933Z,-1
2023-01-18T03:20:27.057Z,-1
2023-01-18T03:22:47.351Z,-0.9
2023-01-18T03:23:57.473Z,-0.9
2023-01-18T03:25:07.594Z,-1
2023-01-18T03:26:17.696Z,-0.9
2023-01-18T03:27:27.815Z,-0.9
2023-01-18T03:28:37.935Z,-0.9
2023-01-18T03:29:48.055Z,-0.9
2023-01-18T03:30:58.175Z,-0.8
2023-01-18T03:32:08.296Z,-0.8
2023-01-18T03:33:18.407Z,-0.8
2023-01-18T03:34:27.540Z,-0.8
2023-01-18T03:35:37.665Z,-0.9
2023-01-18T03:36:47.779Z,-0.9
2023-01-18T03:37:57.908Z,-1
2023-01-18T03:39:08.034Z,-1
2023-01-18T03:40:18.151Z,-1.1
2023-01-18T03:41:28.253Z,-1.1
2023-01-18T03:42:38.379Z,-1.2
2023-01-18T03:43:48.491Z,-1.2
2023-01-18T03:44:58.620Z,-1.3
2023-01-18T03:46:08.000Z,-1.3
2023-01-18T03:47:18.814Z,-1.3
2023-01-18T03:48:28.981Z,-1.3
2023-01-18T03:49:38.124Z,-1.3
2023-01-18T03:50:48.231Z,-1.3
2023-01-18T03:51:58.348Z,-1.3
2023-01-18T03:53:08.463Z,-1.3
2023-01-18T03:54:18.586Z,-1.2
2023-01-18T03:55:28.657Z,-1.1
2023-01-18T03:57:48.950Z,-1.2
2023-01-18T03:58:59.068Z,-1.3
2023-01-18T04:00:09.190Z,-1.3
2023-01-18T04:01:19.248Z,-1.3
2023-01-18T04:02:29.419Z,-1.3
2023-01-18T04:04:49.652Z,-1.4
2023-01-18T04:05:58.781Z,-1.5
2023-01-18T04:07:08.869Z,-1.5
2023-01-18T04:08:19.032Z,-1.5
2023-01-18T04:09:29.154Z,-1.6
2023-01-18T04:10:39.280Z,-1.6
2023-01-18T04:11:49.404Z,-1.6
2023-01-18T04:12:59.507Z,-1.6
2023-01-18T04:14:09.629Z,-1.7
2023-01-18T04:15:19.748Z,-1.7
2023-01-18T04:16:29.856Z,-1.8
2023-01-18T04:17:39.986Z,-1.9
2023-01-18T04:18:50.053Z,-1.9
2023-01-18T04:20:00.219Z,-1.9
2023-01-18T04:21:09.348Z,-1.9
2023-01-18T04:22:19.425Z,-2
2023-01-18T04:23:29.585Z,-2
2023-01-18T04:24:39.663Z,-2
2023-01-18T04:25:49.829Z,-2
2023-01-18T04:26:59.953Z,-2
2023-01-18T04:28:10.061Z,-2.1
2023-01-18T04:29:20.136Z,-2.1
2023-01-18T04:30:30.255Z,-2.1
2023-01-18T04:31:40.427Z,-2
2023-01-18T04:32:50.538Z,-2
2023-01-18T04:34:00.661Z,-2
2023-01-18T04:35:10.784Z,-1.9
2023-01-18T04:36:19.865Z,-1.9
2023-01-18T04:37:30.024Z,-2
2023-01-18T04:38:40.101Z,-1.9
2023-01-18T04:39:50.273Z,-1.9
2023-01-18T04:41:00.404Z,-1.9
2023-01-18T04:42:10.457Z,-1.9
2023-01-18T04:43:20.575Z,-2
2023-01-18T04:44:30.737Z,-1.9
2023-01-18T04:45:40.865Z,-1.9
2023-01-18T04:46:50.990Z,-2
2023-01-18T04:48:01.097Z,-2
2023-01-18T04:49:11.222Z,-1.9
2023-01-18T04:50:21.344Z,-1.8
2023-01-18T04:51:30.493Z,-1.8
2023-01-18T04:52:40.541Z,-1.8
2023-01-18T04:53:50.714Z,-1.8
2023-01-18T04:55:00.827Z,-1.8
2023-01-18T04:56:10.947Z,-1.8
2023-01-18T04:57:21.032Z,-1.8
2023-01-18T04:58:31.181Z,-1.9
2023-01-18T04:59:41.266Z,-1.9
2023-01-18T05:00:51.428Z,-1.9
2023-01-18T05:02:01.499Z,-1.9
2023-01-18T05:03:11.671Z,-1.9
2023-01-18T05:04:21.736Z,-1.9
2023-01-18T05:05:31.855Z,-1.9
2023-01-18T05:06:40.981Z,-1.9
2023-01-18T05:07:51.167Z,-1.9
2023-01-18T05:09:01.294Z,-2
2023-01-18T05:10:11.400Z,-2.1
2023-01-18T05:11:21.522Z,-2.1
2023-01-18T05:12:30.656Z,-2.1
2023-01-18T05:13:40.781Z,-2.1
2023-01-18T05:14:50.885Z,-2.2
2023-01-18T05:16:01.028Z,-2.2
2023-01-18T05:17:11.136Z,-2.2
2023-01-18T05:18:21.193Z,-2.2
2023-01-18T05:19:31.370Z,-2.2
2023-01-18T05:20:41.488Z,-2.2
2023-01-18T05:21:51.609Z,-2.2
2023-01-18T05:23:01.734Z,-2.3
2023-01-18T05:24:11.848Z,-2.3
2023-01-18T05:25:21.911Z,-2.3
2023-01-18T05:26:32.086Z,-2.3
2023-01-18T05:27:41.221Z,-2.3
2023-01-18T05:28:51.277Z,-2.3
2023-01-18T05:30:01.457Z,-2.2
2023-01-18T05:31:11.576Z,-2.3
2023-01-18T05:32:21.639Z,-2.3
2023-01-18T05:33:31.808Z,-2.3
2023-01-18T05:34:41.936Z,-2.3
2023-01-18T05:35:52.062Z,-2.3
2023-01-18T05:37:02.182Z,-2.4
2023-01-18T05:38:12.293Z,-2.4
2023-01-18T05:39:22.361Z,-2.4
2023-01-18T05:40:32.527Z,-2.4
2023-01-18T05:41:42.636Z,-2.4
2023-01-18T05:42:51.773Z,-2.4
2023-01-18T05:44:01.891Z,-2.4
2023-01-18T05:45:12.022Z,-2.4
2023-01-18T05:46:22.092Z,-2.4
2023-01-18T05:47:32.256Z,-2.5
2023-01-18T05:48:42.365Z,-2.5
2023-01-18T05:49:52.493Z,-2.5
2023-01-18T05:51:02.629Z,-2.6
2023-01-18T05:52:12.734Z,-2.6
2023-01-18T05:53:22.803Z,-2.6
2023-01-18T05:54:32.957Z,-2.7
2023-01-18T05:55:43.095Z,-2.7
2023-01-18T05:56:53.201Z,-2.7
2023-01-18T05:58:02.352Z,-2.7
2023-01-18T05:59:12.449Z,-2.7
2023-01-18T06:00:22.522Z,-2.8
2023-01-18T06:01:32.641Z,-2.8
2023-01-18T06:02:42.759Z,-2.9
2023-01-18T06:03:52.940Z,-2.9
2023-01-18T06:05:03.065Z,-2.9
2023-01-18T06:06:13.186Z,-2.9
2023-01-18T06:07:23.243Z,-2.8
2023-01-18T06:08:33.323Z,-2.8
2023-01-18T06:09:43.541Z,-2.7
2023-01-18T06:10:53.567Z,-2.7
2023-01-18T06:12:03.785Z,-2.7
2023-01-18T06:13:12.913Z,-2.7
2023-01-18T06:14:22.960Z,-2.7
2023-01-18T06:15:33.094Z,-2.6
2023-01-18T06:16:43.278Z,-2.6
2023-01-18T06:17:53.379Z,-2.6
2023-01-18T06:19:03.501Z,-2.6
2023-01-18T06:20:13.544Z,-2.6
2023-01-18T06:21:23.692Z,-2.7
2023-01-18T06:22:33.863Z,-2.7
2023-01-18T06:24:54.102Z,-2.7
2023-01-18T06:26:04.217Z,-2.7
2023-01-18T06:27:14.272Z,-2.7
2023-01-18T06:28:23.471Z,-2.6
2023-01-18T06:29:33.602Z,-2.6
2023-01-18T06:30:43.699Z,-2.5
2023-01-18T06:31:53.831Z,-2.4
2023-01-18T06:33:03.947Z,-2.4
2023-01-18T06:34:14.080Z,-2.5
2023-01-18T06:35:24.180Z,-2.5
2023-01-18T06:36:34.309Z,-2.5
2023-01-18T06:38:54.538Z,-2.5
2023-01-18T06:40:04.661Z,-2.4
2023-01-18T06:41:14.786Z,-2.3
2023-01-18T06:42:24.831Z,-2.3
2023-01-18T06:43:34.042Z,-2.3
2023-01-18T06:44:44.150Z,-2.2
2023-01-18T06:45:54.262Z,-2.2
2023-01-18T06:47:04.395Z,-2.2
2023-01-18T06:48:14.502Z,-2.2
2023-01-18T06:49:24.618Z,-2.1
2023-01-18T06:50:34.731Z,-2.2
2023-01-18T06:51:44.814Z,-2.2
2023-01-18T06:52:54.969Z,-2.2
2023-01-18T06:54:05.088Z,-2.3
2023-01-18T06:55:15.224Z,-2.3
2023-01-18T06:56:25.290Z,-2.4
2023-01-18T06:57:35.444Z,-2.3
2023-01-18T06:58:44.530Z,-2.2
2023-01-18T06:59:54.647Z,-2.1
2023-01-18T07:01:04.838Z,-2.1
2023-01-18T07:02:14.882Z,-2.1
2023-01-18T07:03:25.016Z,-2
2023-01-18T07:04:35.189Z,-2
2023-01-18T07:05:45.251Z,-1.9
2023-01-18T07:06:55.412Z,-1.9
2023-01-18T07:08:05.551Z,-1.9
2023-01-18T07:09:15.670Z,-2
2023-01-18T07:10:25.719Z,-1.9
2023-01-18T07:11:35.899Z,-2
2023-01-18T07:12:45.954Z,-1.9
2023-01-18T07:13:55.098Z,-1.9
2023-01-18T07:15:05.264Z,-1.9
2023-01-18T07:16:15.397Z,-1.9
2023-01-18T07:17:25.497Z,-2
2023-01-18T07:18:35.618Z,-2
2023-01-18T07:19:45.682Z,-2
2023-01-18T07:20:55.882Z,-2
2023-01-18T07:22:06.002Z,-2
2023-01-18T07:23:16.044Z,-2
2023-01-18T07:24:26.164Z,-2
2023-01-18T07:25:36.354Z,-2
2023-01-18T07:26:46.478Z,-2.1
2023-01-18T07:27:56.584Z,-2
2023-01-18T07:29:05.725Z,-2
2023-01-18T07:30:15.843Z,-2
2023-01-18T07:31:25.894Z,-1.9
2023-01-18T07:32:36.078Z,-1.9
2023-01-18T07:33:46.135Z,-1.9
2023-01-18T07:34:56.298Z,-1.8
2023-01-18T07:36:06.418Z,-1.7
2023-01-18T07:37:16.547Z,-1.7
2023-01-18T07:38:26.667Z,-1.8
2023-01-18T07:39:36.781Z,-1.8
2023-01-18T07:40:46.844Z,-1.8
2023-01-18T07:41:57.032Z,-1.8
2023-01-18T07:43:07.152Z,-1.9
2023-01-18T07:44:16.221Z,-1.8
2023-01-18T07:45:26.388Z,-1.8
2023-01-18T07:46:36.518Z,-1.8
2023-01-18T07:48:56.697Z,-1.9
2023-01-18T07:50:06.885Z,-1.9
2023-01-18T07:51:16.989Z,-1.9
2023-01-18T07:52:27.045Z,-1.9
2023-01-18T07:53:37.232Z,-1.8
2023-01-18T07:55:57.477Z,-1.7
2023-01-18T07:57:07.586Z,-1.7
2023-01-18T07:58:17.641Z,-1.7
2023-01-18T07:59:26.841Z,-1.7
2023-01-18T08:00:36.968Z,-1.7
2023-01-18T08:01:47.004Z,-1.7
2023-01-18T08:02:57.191Z,-1.7
2023-01-18T08:04:07.329Z,-1.7
2023-01-18T08:05:17.426Z,-1.8
2023-01-18T08:06:27.486Z,-1.8
2023-01-18T08:07:37.667Z,-1.7
2023-01-18T08:08:47.724Z,-1.6
2023-01-18T08:09:57.922Z,-1.6
2023-01-18T08:11:08.013Z,-1.6
2023-01-18T08:12:18.147Z,-1.6
2023-01-18T08:13:28.197Z,-1.5
2023-01-18T08:14:37.403Z,-1.5
2023-01-18T08:16:57.628Z,-1.5
2023-01-18T08:18:07.764Z,-1.4
2023-01-18T08:19:17.860Z,-1.4
2023-01-18T08:20:27.994Z,-1.4
2023-01-18T08:21:38.099Z,-1.3
2023-01-18T08:22:48.171Z,-1.3
2023-01-18T08:23:58.290Z,-1.2
2023-01-18T08:25:08.469Z,-1.2
2023-01-18T08:26:18.577Z,-1.2
2023-01-18T08:27:28.633Z,-1.2
2023-01-18T08:28:38.828Z,-1.1
2023-01-18T08:30:58.092Z,-1.1
2023-01-18T08:32:08.129Z,-1.2
2023-01-18T08:33:18.249Z,-1.1
2023-01-18T08:34:28.370Z,-1.1
2023-01-18T08:35:38.487Z,-1.1
2023-01-18T08:36:48.692Z,-1
2023-01-18T08:37:58.800Z,-0.9
2023-01-18T08:39:08.918Z,-0.9
2023-01-18T08:40:19.016Z,-0.8
2023-01-18T08:41:29.136Z,-0.9
2023-01-18T08:42:39.268Z,-0.9
2023-01-18T08:43:49.396Z,-0.8
2023-01-18T08:44:58.513Z,-0.8
2023-01-18T08:46:08.631Z,-0.7
2023-01-18T08:47:18.700Z,-0.7
2023-01-18T08:48:28.818Z,-0.7
2023-01-18T08:49:38.993Z,-0.7
2023-01-18T08:51:59.221Z,-0.7
2023-01-18T08:53:09.352Z,-0.7
2023-01-18T08:54:19.489Z,-0.7
2023-01-18T08:55:29.594Z,-0.7
2023-01-18T08:56:39.698Z,-0.7
2023-01-18T08:57:49.833Z,-0.6
2023-01-18T08:58:59.959Z,-0.6
2023-01-18T09:00:09.090Z,-0.6
2023-01-18T09:01:19.214Z,-0.6
2023-01-18T09:02:29.250Z,-0.5
2023-01-18T09:03:39.440Z,-0.6
2023-01-18T09:04:49.560Z,-0.5
2023-01-18T09:05:59.665Z,-0.5
2023-01-18T09:07:09.932Z,-0.5
2023-01-18T09:08:19.973Z,-0.3
2023-01-18T09:09:30.163Z,-0.3
2023-01-18T09:10:40.212Z,-0.3
2023-01-18T09:11:50.411Z,-0.2
2023-01-18T09:13:00.516Z,-0.2
2023-01-18T09:14:10.638Z,-0.1
2023-01-18T09:15:20.739Z,-0.1
2023-01-18T09:16:30.873Z,-0.1
2023-01-18T09:17:40.982Z,-0.1
2023-01-18T09:20:01.229Z,0
2023-01-18T09:21:11.333Z,-0.1
2023-01-18T09:22:20.468Z,-0.1
2023-01-18T09:23:30.590Z,0
2023-01-18T09:24:40.733Z,0
2023-01-18T09:25:50.844Z,0
2023-01-18T09:27:00.953Z,0
2023-01-18T09:28:11.079Z,0
2023-01-18T09:29:21.200Z,0.1
2023-01-18T09:30:31.237Z,0.1
2023-01-18T09:31:41.416Z,0
2023-01-18T09:32:51.545Z,0.1
2023-01-18T09:34:01.594Z,0.1
2023-01-18T09:35:11.790Z,0.2
2023-01-18T09:36:21.897Z,0.3
2023-01-18T09:37:31.043Z,0.3
2023-01-18T09:38:41.165Z,0.3
2023-01-18T09:39:51.284Z,0.4
2023-01-18T09:41:01.406Z,0.3
2023-01-18T09:42:11.527Z,0.4
2023-01-18T09:43:21.646Z,0.4
2023-01-18T09:44:31.681Z,0.4
2023-01-18T09:45:41.798Z,0.3
2023-01-18T09:48:02.103Z,0.3
2023-01-18T09:49:12.244Z,0.3
2023-01-18T09:50:22.336Z,0.4
2023-01-18T09:51:32.453Z,0.4
2023-01-18T09:52:41.603Z,0.5
2023-01-18T09:53:51.727Z,0.4
2023-01-18T09:55:01.849Z,0.4
2023-01-18T09:56:11.972Z,0.4
2023-01-18T09:57:22.082Z,0.6
2023-01-18T09:58:32.193Z,0.6
2023-01-18T09:59:42.314Z,0.7
2023-01-18T10:00:52.443Z,0.8
2023-01-18T10:02:02.559Z,0.8
2023-01-18T10:03:12.689Z,0.9
2023-01-18T10:04:22.795Z,1
2023-01-18T10:05:32.926Z,1.1
2023-01-18T10:06:43.045Z,1.2
2023-01-18T10:07:52.087Z,1.2
2023-01-18T10:09:02.288Z,1.2
2023-01-18T10:10:12.416Z,1.2
2023-01-18T10:11:22.528Z,1.2
2023-01-18T10:12:32.563Z,1.2
2023-01-18T10:13:42.740Z,1.3
2023-01-18T10:14:52.896Z,1.3
2023-01-18T10:16:02.997Z,1.4
2023-01-18T10:17:13.123Z,1.3
2023-01-18T10:18:23.235Z,1.2
2023-01-18T10:19:33.273Z,1.2
2023-01-18T10:20:43.394Z,1.2
2023-01-18T10:21:53.592Z,1.4
2023-01-18T10:23:02.727Z,1.4
2023-01-18T10:24:12.848Z,1.4
2023-01-18T10:25:22.974Z,1.4
2023-01-18T10:26:33.084Z,1.4
2023-01-18T10:27:43.182Z,1.4
2023-01-18T10:28:53.319Z,1.4
2023-01-18T10:30:03.429Z,1.4
2023-01-18T10:31:13.562Z,1.4
2023-01-18T10:32:23.673Z,1.4
2023-01-18T10:33:33.797Z,1.6
2023-01-18T10:34:43.916Z,1.5
2023-01-18T10:35:54.030Z,1.6
2023-01-18T10:37:04.135Z,1.6
2023-01-18T10:38:13.291Z,1.4
2023-01-18T10:39:23.415Z,1.4
2023-01-18T10:40:33.443Z,1.4
2023-01-18T10:41:43.616Z,1.5
2023-01-18T10:42:53.760Z,1.7
2023-01-18T10:44:03.881Z,1.5
2023-01-18T10:45:13.997Z,1.4
2023-01-18T10:46:24.119Z,1.5
2023-01-18T10:47:34.160Z,1.5
2023-01-18T10:48:44.357Z,1.4
2023-01-18T10:49:54.477Z,1.4
2023-01-18T10:51:04.589Z,1.4
2023-01-18T10:52:14.707Z,1.4
2023-01-18T10:53:23.842Z,1.3
2023-01-18T10:54:33.960Z,1.4
2023-01-18T10:55:44.076Z,1.3
2023-01-18T10:56:54.205Z,1.3
2023-01-18T10:58:04.310Z,1.3
2023-01-18T10:59:14.435Z,1.3
2023-01-18T11:00:24.548Z,1.4
2023-01-18T11:01:34.591Z,1.5
2023-01-18T11:02:44.783Z,1.6
2023-01-18T11:05:05.031Z,1.8
2023-01-18T11:06:15.152Z,1.8
2023-01-18T11:07:25.240Z,1.9
2023-01-18T11:08:34.313Z,1.9
2023-01-18T11:09:44.498Z,2
2023-01-18T11:10:54.629Z,1.9
2023-01-18T11:12:04.748Z,2
2023-01-18T11:13:14.872Z,2
2023-01-18T11:14:24.999Z,1.9
2023-01-18T11:15:35.086Z,1.9
2023-01-18T11:16:45.222Z,2.1
2023-01-18T11:19:05.469Z,2.2
2023-01-18T11:20:15.575Z,2.2
2023-01-18T11:21:25.697Z,2.2
2023-01-18T11:22:35.815Z,2.2
2023-01-18T11:23:44.946Z,2
2023-01-18T11:24:55.071Z,1.9
2023-01-18T11:26:05.181Z,1.9
2023-01-18T11:27:15.319Z,1.8
2023-01-18T11:28:25.410Z,1.7
2023-01-18T11:29:35.547Z,1.9
2023-01-18T11:30:45.668Z,2
2023-01-18T11:33:05.901Z,1.8
2023-01-18T11:34:16.020Z,2
2023-01-18T11:35:26.145Z,2
2023-01-18T11:36:36.248Z,1.9
2023-01-18T11:37:46.366Z,1.9
2023-01-18T11:38:55.505Z,2
2023-01-18T11:40:05.632Z,2.1
2023-01-18T11:41:15.736Z,2.1
2023-01-18T11:42:25.840Z,2.2
2023-01-18T11:43:35.962Z,2.1
2023-01-18T11:44:46.078Z,2.1
2023-01-18T11:45:56.226Z,2.2
2023-01-18T11:47:06.327Z,2.1
2023-01-18T11:48:16.452Z,2
2023-01-18T11:49:26.551Z,2
2023-01-18T11:50:36.680Z,2.2
2023-01-18T11:51:46.804Z,2.2
2023-01-18T11:52:56.929Z,2.2
2023-01-18T11:54:06.045Z,2.1
2023-01-18T11:55:16.186Z,1.9
2023-01-18T11:56:26.269Z,1.9
2023-01-18T11:57:36.422Z,1.9
2023-01-18T11:58:46.531Z,2
2023-01-18T11:59:56.659Z,1.9
2023-01-18T12:01:06.766Z,2
2023-01-18T12:02:16.890Z,2.3
2023-01-18T12:03:26.980Z,2.3
2023-01-18T12:04:37.134Z,2.1
2023-01-18T12:05:47.245Z,2.2
2023-01-18T12:06:57.364Z,2.2
2023-01-18T12:08:07.478Z,2.1
2023-01-18T12:09:16.589Z,2.3
2023-01-18T12:10:26.707Z,2.3
2023-01-18T12:11:36.828Z,2.2
2023-01-18T12:12:46.949Z,2.3
2023-01-18T12:13:57.073Z,2.3
2023-01-18T12:15:07.197Z,2.4
2023-01-18T12:16:17.317Z,2.5
2023-01-18T12:17:27.418Z,2.4
2023-01-18T12:18:37.569Z,2.6
2023-01-18T12:19:47.664Z,2.5
2023-01-18T12:20:57.794Z,2.5
2023-01-18T12:22:07.893Z,2.6
2023-01-18T12:23:18.042Z,2.5
2023-01-18T12:24:27.160Z,2.5
2023-01-18T12:25:37.289Z,2.5
2023-01-18T12:26:47.385Z,2.6
2023-01-18T12:27:57.523Z,2.7
2023-01-18T12:29:07.619Z,2.6
2023-01-18T12:30:17.765Z,2.6
2023-01-18T12:31:27.858Z,2.6
2023-01-18T12:32:37.989Z,2.6
2023-01-18T12:33:48.105Z,2.7
2023-01-18T12:34:58.234Z,2.5
2023-01-18T12:36:08.330Z,2.5
2023-01-18T12:37:18.474Z,2.6
2023-01-18T12:38:28.584Z,2.7
2023-01-18T12:39:37.710Z,2.6
2023-01-18T12:40:47.830Z,2.4
2023-01-18T12:41:57.955Z,2.5
2023-01-18T12:43:08.050Z,2.4
2023-01-18T12:44:18.177Z,2.3
2023-01-18T12:45:28.285Z,2.3
2023-01-18T12:46:38.432Z,2.3
2023-01-18T12:47:48.526Z,2.5
2023-01-18T12:50:08.792Z,2.4
2023-01-18T12:51:18.899Z,2.3
2023-01-18T12:52:29.003Z,2.3
2023-01-18T12:53:39.145Z,2.3
2023-01-18T12:54:48.281Z,2.4
2023-01-18T12:55:58.388Z,2.3
2023-01-18T12:57:08.493Z,2.3
2023-01-18T12:58:18.622Z,2.3
2023-01-18T12:59:28.751Z,2.4
2023-01-18T13:00:38.838Z,2.5
2023-01-18T13:01:48.003Z,2.3
2023-01-18T13:02:58.132Z,2.4
2023-01-18T13:04:08.236Z,2.4
2023-01-18T13:05:18.331Z,2.1
2023-01-18T13:06:28.450Z,2.2
2023-01-18T13:07:38.576Z,2.3
2023-01-18T13:08:48.715Z,2.3
2023-01-18T13:09:58.838Z,2.3
2023-01-18T13:11:08.933Z,2.3
2023-01-18T13:12:19.040Z,2.4
2023-01-18T13:13:29.165Z,2.5
2023-01-18T13:14:39.289Z,2.6
2023-01-18T13:15:49.427Z,2.6
2023-01-18T13:16:59.668Z,2.5
2023-01-18T13:18:09.756Z,2.6
2023-01-18T13:19:19.909Z,2.6
2023-01-18T13:20:30.012Z,2.5
2023-01-18T13:21:40.107Z,2.5
2023-01-18T13:22:50.232Z,2.5
2023-01-18T13:25:10.486Z,2.5
2023-01-18T13:26:20.588Z,2.5
2023-01-18T13:27:30.699Z,2.4
2023-01-18T13:28:40.821Z,2.5
2023-01-18T13:29:50.955Z,2.5
2023-01-18T13:31:01.078Z,2.4
2023-01-18T13:32:10.215Z,2.4
2023-01-18T13:33:20.339Z,2.4
2023-01-18T13:34:30.433Z,2.3
2023-01-18T13:35:40.568Z,2.3
2023-01-18T13:36:50.697Z,2.3
2023-01-18T13:38:00.815Z,2.4
2023-01-18T13:39:10.932Z,2.4
2023-01-18T13:40:21.047Z,2.4
2023-01-18T13:41:31.139Z,2.4
2023-01-18T13:42:41.293Z,2.3
2023-01-18T13:43:51.383Z,2.3
2023-01-18T13:45:01.505Z,2.3
2023-01-18T13:46:11.607Z,2.3
2023-01-18T13:47:20.765Z,2.3
2023-01-18T13:48:30.867Z,2.2
2023-01-18T13:49:41.016Z,2.1
2023-01-18T13:50:51.136Z,2.1
2023-01-18T13:52:01.239Z,2.1
2023-01-18T13:53:11.360Z,2.2
2023-01-18T13:54:21.495Z,2.2
2023-01-18T13:55:31.577Z,2.2
2023-01-18T13:56:41.730Z,2.1
2023-01-18T13:57:51.824Z,2.1
2023-01-18T13:59:01.944Z,1.9
2023-01-18T14:00:12.049Z,2
2023-01-18T14:01:22.192Z,2
2023-01-18T14:02:31.332Z,2
2023-01-18T14:03:41.448Z,2
2023-01-18T14:04:51.552Z,2
2023-01-18T14:07:11.785Z,1.9
2023-01-18T14:08:21.915Z,1.9
2023-01-18T14:09:32.036Z,2
2023-01-18T14:10:42.140Z,1.9
2023-01-18T14:11:52.278Z,1.8
2023-01-18T14:13:02.400Z,1.8
2023-01-18T14:14:12.492Z,1.8
2023-01-18T14:15:22.629Z,1.7
2023-01-18T14:16:32.741Z,1.6
2023-01-18T14:17:41.861Z,1.6
2023-01-18T14:18:51.989Z,1.5
2023-01-18T14:21:12.213Z,1.4
2023-01-18T14:22:22.329Z,1.5
2023-01-18T14:23:32.450Z,1.5
2023-01-18T14:24:42.581Z,1.4
2023-01-18T14:25:52.686Z,1.4
2023-01-18T14:27:02.810Z,1.4
2023-01-18T14:28:12.941Z,1.4
2023-01-18T14:29:23.058Z,1.4
2023-01-18T14:30:33.000Z,1.4
2023-01-18T14:31:43.291Z,1.4
2023-01-18T14:32:52.427Z,1.3
2023-01-18T14:34:02.544Z,1.2
2023-01-18T14:35:12.664Z,1.2
2023-01-18T14:36:22.779Z,1.2
2023-01-18T14:37:32.897Z,1.1
2023-01-18T14:38:43.006Z,1.1
2023-01-18T14:39:53.130Z,1.1
2023-01-18T14:41:03.259Z,1.1
2023-01-18T14:42:13.362Z,1
2023-01-18T14:43:23.486Z,1
2023-01-18T14:44:33.607Z,1.1
2023-01-18T14:45:43.731Z,1
2023-01-18T14:46:53.851Z,1
2023-01-18T14:49:13.108Z,0.8
2023-01-18T14:50:23.212Z,0.8
2023-01-18T14:51:33.334Z,0.8
2023-01-18T14:52:43.453Z,0.7
2023-01-18T14:53:53.580Z,0.6
2023-01-18T14:55:03.703Z,0.6
2023-01-18T14:56:13.804Z,0.5
2023-01-18T14:57:23.928Z,0.5
2023-01-18T14:58:34.058Z,0.5
2023-01-18T14:59:44.163Z,0.4
2023-01-18T15:00:54.292Z,0.4
2023-01-18T15:02:04.416Z,0.4
2023-01-18T15:03:13.533Z,0.4
2023-01-18T15:04:23.660Z,0.4
2023-01-18T15:05:33.783Z,0.4
2023-01-18T15:06:43.889Z,0.4
2023-01-18T15:07:54.008Z,0.4
2023-01-18T15:09:04.144Z,0.4
2023-01-18T15:10:14.245Z,0.4
2023-01-18T15:11:24.370Z,0.3
2023-01-18T15:12:34.496Z,0.3
2023-01-18T15:13:44.614Z,0.3
2023-01-18T15:14:54.735Z,0.3
2023-01-18T15:16:04.856Z,0.3
2023-01-18T15:17:14.970Z,0.3
2023-01-18T15:18:24.096Z,0.3
2023-01-18T15:19:34.224Z,0.3
2023-01-18T15:20:44.332Z,0.3
2023-01-18T15:21:54.452Z,0.3
2023-01-18T15:23:04.579Z,0.3
2023-01-18T15:24:14.689Z,0.2
2023-01-18T15:25:24.807Z,0.2
2023-01-18T15:26:34.928Z,0.1
2023-01-18T15:27:45.050Z,0.1
2023-01-18T15:28:55.166Z,0.1
2023-01-18T15:30:05.287Z,0
2023-01-18T15:31:15.411Z,0
2023-01-18T15:32:25.535Z,0
2023-01-18T15:33:34.666Z,-0.1
2023-01-18T15:34:44.782Z,-0.1
2023-01-18T15:35:54.908Z,-0.2
2023-01-18T15:37:05.018Z,-0.2
2023-01-18T15:38:15.142Z,-0.1
2023-01-18T15:39:25.260Z,-0.1
2023-01-18T15:40:35.386Z,-0.1
2023-01-18T15:41:45.501Z,-0.1
2023-01-18T15:42:55.608Z,-0.1
2023-01-18T15:44:05.735Z,-0.1
2023-01-18T15:45:15.859Z,-0.2
2023-01-18T15:46:25.965Z,-0.2
2023-01-18T15:47:36.093Z,-0.2
2023-01-18T15:48:45.228Z,-0.2
2023-01-18T15:49:55.340Z,-0.3
2023-01-18T15:51:05.459Z,-0.3
2023-01-18T15:52:15.583Z,-0.3
2023-01-18T15:53:25.706Z,-0.3
2023-01-18T15:54:35.816Z,-0.3
2023-01-18T15:55:45.942Z,-0.3
2023-01-18T15:56:56.054Z,-0.3
2023-01-18T15:58:06.174Z,-0.3
2023-01-18T15:59:16.301Z,-0.4
2023-01-18T16:00:26.423Z,-0.4
2023-01-18T16:01:36.533Z,-0.5
2023-01-18T16:02:46.653Z,-0.6
2023-01-18T16:03:55.782Z,-0.6
2023-01-18T16:06:16.021Z,-0.7
2023-01-18T16:07:26.156Z,-0.7
2023-01-18T16:08:36.258Z,-0.7
2023-01-18T16:09:46.381Z,-0.8
2023-01-18T16:10:56.504Z,-0.8
2023-01-18T16:12:06.631Z,-0.8
2023-01-18T16:13:16.735Z,-0.8
2023-01-18T16:14:26.854Z,-0.9
2023-01-18T16:15:36.977Z,-0.9
2023-01-18T16:16:47.102Z,-0.9
2023-01-18T16:17:57.215Z,-0.9
2023-01-18T16:19:06.348Z,-0.9